Time;durP1;ratioP1;P1;durP2;ratioP2;P2;SDS_P1;SDS_P2;PMS_P1;PMS_P2;Temp;Humidity;BMP_temperature;BMP_pressure;BME280_temperature;BME280_humidity;BME280_pressure;Samples;Min_cycle;Max_cycle;Signal;HPM_P1;HPM_P2
2023/04/10 00:01:12;;;;;;;6.78;6.28;;;;;;;;;;5118652;28;20775;-62
2023/04/10 00:03:40;;;;;;;6.50;6.00;;;;;;;;;;5118563;28;20214;-62
2023/04/10 00:06:07;;;;;;;7.05;6.45;;;;;;;;;;5119081;28;20206;-62
2023/04/10 00:08:35;;;;;;;6.47;5.97;;;;;;;;;;5118710;28;20214;-62
2023/04/10 00:11:02;;;;;;;6.55;6.05;;;;;;;;;;5118582;28;20261;-62
2023/04/10 00:13:29;;;;;;;6.70;6.20;;;;;;;;;;5118222;28;20782;-62
2023/04/10 00:15:58;;;;;;;6.20;5.70;;;;;;;;;;5118636;28;20210;-62
2023/04/10 00:18:25;;;;;;;5.78;5.38;;;;;;;;;;5118738;28;20447;-62
2023/04/10 00:20:53;;;;;;;6.13;5.63;;;;;;;;;;5118530;28;20206;-62
2023/04/10 00:23:20;;;;;;;6.47;5.97;;;;;;;;;;5119126;28;20561;-62
2023/04/10 00:25:48;;;;;;;6.72;6.22;;;;;;;;;;5118605;28;20582;-62
2023/04/10 00:28:16;;;;;;;6.95;6.35;;;;;;;;;;5118655;28;20302;-62
2023/04/10 00:30:43;;;;;;;6.43;5.93;;;;;;;;;;5118782;28;20227;-62
2023/04/10 00:33:12;;;;;;;6.15;5.65;;;;;;;;;;5118298;28;20203;-62
2023/04/10 00:35:39;;;;;;;6.50;5.90;;;;;;;;;;5118788;28;20210;-62
2023/04/10 00:38:06;;;;;;;6.38;5.88;;;;;;;;;;5118479;28;20215;-62
2023/04/10 00:40:34;;;;;;;6.40;5.90;;;;;;;;;;5118211;28;20199;-62
2023/04/10 00:43:01;;;;;;;6.47;5.97;;;;;;;;;;5118495;28;20301;-62
2023/04/10 00:45:29;;;;;;;6.25;5.75;;;;;;;;;;5118211;28;20203;-62
2023/04/10 00:47:56;;;;;;;6.35;5.85;;;;;;;;;;5118102;28;20809;-62
2023/04/10 00:50:25;;;;;;;6.20;5.70;;;;;;;;;;5118636;28;20256;-62
2023/04/10 00:52:52;;;;;;;6.55;6.05;;;;;;;;;;5118133;28;20210;-62
2023/04/10 00:55:19;;;;;;;6.35;5.85;;;;;;;;;;5118604;28;20562;-62
2023/04/10 00:57:47;;;;;;;6.40;5.90;;;;;;;;;;5118265;28;20211;-62
2023/04/10 01:00:15;;;;;;;6.10;5.60;;;;;;;;;;5118068;28;20199;-62
2023/04/10 01:02:42;;;;;;;6.32;5.82;;;;;;;;;;5117951;28;20210;-62
2023/04/10 01:05:10;;;;;;;6.60;6.05;;;;;;;;;;5118377;28;20271;-62
2023/04/10 01:07:45;;;;;;;5.95;5.50;;;;;;;;;;5118055;28;20203;-63
2023/04/10 01:10:15;;;;;;;6.68;6.18;;;;;;;;;;5118452;28;20222;-62
2023/04/10 01:12:52;;;;;;;6.15;5.65;;;;;;;;;;5118387;28;20283;-62
2023/04/10 01:15:20;;;;;;;6.25;5.75;;;;;;;;;;5117652;28;20210;-63
2023/04/10 01:17:51;;;;;;;6.68;6.07;;;;;;;;;;5118231;28;20263;-62
2023/04/10 01:20:21;;;;;;;6.60;6.10;;;;;;;;;;5117945;28;20256;-62
2023/04/10 01:23:04;;;;;;;6.47;5.97;;;;;;;;;;5118105;28;20231;-62
2023/04/10 01:25:41;;;;;;;6.00;5.50;;;;;;;;;;5117815;28;20667;-62
2023/04/10 01:28:17;;;;;;;6.38;5.88;;;;;;;;;;5118250;28;20202;-62
2023/04/10 01:30:47;;;;;;;6.25;5.75;;;;;;;;;;5118260;28;20303;-62
2023/04/10 01:33:16;;;;;;;6.50;6.00;;;;;;;;;;5118137;28;20281;-62
2023/04/10 01:35:44;;;;;;;6.28;5.75;;;;;;;;;;5118326;28;20287;-62
2023/04/10 01:38:12;;;;;;;6.45;5.95;;;;;;;;;;5118149;28;20203;-62
2023/04/10 01:40:41;;;;;;;6.53;5.93;;;;;;;;;;5117535;28;20198;-62
2023/04/10 01:43:11;;;;;;;6.28;5.78;;;;;;;;;;5117700;28;20202;-62
2023/04/10 01:45:40;;;;;;;5.85;5.35;;;;;;;;;;5117997;28;20285;-63
2023/04/10 01:48:09;;;;;;;6.13;5.63;;;;;;;;;;5117146;28;20214;-62
2023/04/10 01:50:37;;;;;;;6.30;5.72;;;;;;;;;;5117772;28;20235;-62
2023/04/10 01:53:05;;;;;;;5.80;5.30;;;;;;;;;;5117458;28;20286;-62
2023/04/10 01:55:33;;;;;;;6.53;5.93;;;;;;;;;;5117492;28;20214;-62
2023/04/10 01:58:00;;;;;;;6.50;5.90;;;;;;;;;;5117434;28;20211;-62
2023/04/10 02:00:28;;;;;;;6.30;5.80;;;;;;;;;;5120080;28;20198;-62
2023/04/10 02:02:57;;;;;;;6.43;5.93;;;;;;;;;;5121460;28;20647;-62
2023/04/10 02:05:29;;;;;;;6.90;6.30;;;;;;;;;;5121687;28;20248;-63
2023/04/10 02:08:02;;;;;;;6.53;5.93;;;;;;;;;;5121778;28;20211;-63
2023/04/10 02:10:31;;;;;;;6.05;5.55;;;;;;;;;;5121592;28;20632;-62
2023/04/10 02:13:01;;;;;;;6.20;5.70;;;;;;;;;;5121383;28;20302;-62
2023/04/10 02:15:32;;;;;;;6.20;5.70;;;;;;;;;;5121228;28;20203;-62
2023/04/10 02:18:00;;;;;;;6.57;6.03;;;;;;;;;;5120765;28;20297;-62
2023/04/10 02:20:29;;;;;;;6.30;5.80;;;;;;;;;;5120732;28;20209;-62
2023/04/10 02:23:00;;;;;;;6.25;5.65;;;;;;;;;;5121517;28;20555;-62
2023/04/10 02:25:28;;;;;;;6.95;6.35;;;;;;;;;;5121400;28;20670;-63
2023/04/10 02:27:55;;;;;;;6.70;6.15;;;;;;;;;;5120136;28;20207;-62
2023/04/10 02:30:23;;;;;;;5.80;5.30;;;;;;;;;;5120726;27;20203;-62
2023/04/10 02:32:51;;;;;;;6.63;6.13;;;;;;;;;;5132528;27;20203;-62
2023/04/10 02:35:18;;;;;;;6.38;5.85;;;;;;;;;;5121033;28;20517;-62
2023/04/10 02:37:49;;;;;;;6.65;6.15;;;;;;;;;;5120754;28;20728;-62
2023/04/10 02:40:16;;;;;;;6.65;6.05;;;;;;;;;;5121172;28;20210;-62
2023/04/10 02:42:44;;;;;;;6.55;6.05;;;;;;;;;;5122186;27;20207;-62
2023/04/10 02:45:11;;;;;;;6.38;5.88;;;;;;;;;;5120837;28;20207;-62
2023/04/10 02:47:39;;;;;;;6.72;6.22;;;;;;;;;;5121124;28;20586;-62
2023/04/10 02:50:06;;;;;;;6.32;5.82;;;;;;;;;;5129249;27;20247;-63
2023/04/10 02:52:34;;;;;;;6.57;6.07;;;;;;;;;;5141124;27;20237;-62
2023/04/10 02:55:02;;;;;;;7.25;6.65;;;;;;;;;;5141648;27;20558;-62
2023/04/10 02:57:30;;;;;;;6.30;5.80;;;;;;;;;;5141411;27;20255;-62
2023/04/10 02:59:57;;;;;;;6.80;6.30;;;;;;;;;;5140865;27;20216;-62
2023/04/10 03:02:25;;;;;;;6.97;6.38;;;;;;;;;;5141234;27;20309;-62
2023/04/10 03:04:53;;;;;;;6.55;6.05;;;;;;;;;;5140870;27;20284;-62
2023/04/10 03:07:20;;;;;;;6.45;5.95;;;;;;;;;;5141150;27;20274;-62
2023/04/10 03:09:47;;;;;;;6.45;5.95;;;;;;;;;;5135249;27;20275;-62
2023/04/10 03:12:17;;;;;;;6.22;5.72;;;;;;;;;;5120218;28;20561;-62
2023/04/10 03:14:45;;;;;;;6.10;5.60;;;;;;;;;;5134111;27;20230;-62
2023/04/10 03:17:12;;;;;;;6.55;6.05;;;;;;;;;;5140799;27;20210;-62
2023/04/10 03:19:39;;;;;;;6.90;6.30;;;;;;;;;;5140223;27;20259;-62
2023/04/10 03:22:06;;;;;;;6.80;6.20;;;;;;;;;;5140290;27;20230;-62
2023/04/10 03:24:34;;;;;;;6.65;6.15;;;;;;;;;;5140650;27;20206;-62
2023/04/10 03:27:01;;;;;;;6.40;5.90;;;;;;;;;;5140311;27;20211;-62
2023/04/10 03:29:30;;;;;;;6.57;6.07;;;;;;;;;;5137934;27;20210;-62
2023/04/10 03:31:57;;;;;;;6.88;6.32;;;;;;;;;;5120488;28;20249;-62
2023/04/10 03:34:24;;;;;;;6.50;6.00;;;;;;;;;;5119880;28;20567;-62
2023/04/10 03:36:52;;;;;;;6.60;6.00;;;;;;;;;;5119809;28;20209;-63
2023/04/10 03:39:19;;;;;;;6.22;5.72;;;;;;;;;;5119785;27;20275;-62
2023/04/10 03:41:47;;;;;;;6.47;5.97;;;;;;;;;;5119847;28;20195;-62
2023/04/10 03:44:14;;;;;;;6.85;6.30;;;;;;;;;;5119738;28;20244;-62
2023/04/10 03:46:43;;;;;;;7.05;6.45;;;;;;;;;;5119644;28;20203;-62
2023/04/10 03:49:10;;;;;;;6.30;5.80;;;;;;;;;;5119970;28;20207;-62
2023/04/10 03:51:37;;;;;;;6.70;6.20;;;;;;;;;;5139489;27;20234;-62
2023/04/10 03:54:04;;;;;;;6.55;6.05;;;;;;;;;;5140017;27;20330;-62
2023/04/10 03:56:32;;;;;;;5.93;5.43;;;;;;;;;;5140323;27;20209;-62
2023/04/10 03:58:59;;;;;;;6.57;6.05;;;;;;;;;;5140139;27;20205;-62
2023/04/10 04:01:27;;;;;;;6.65;6.15;;;;;;;;;;5120796;27;20202;-62
2023/04/10 04:03:56;;;;;;;6.38;5.88;;;;;;;;;;5119138;28;20213;-62
2023/04/10 04:06:23;;;;;;;7.32;6.72;;;;;;;;;;5119329;28;20210;-62
2023/04/10 04:08:51;;;;;;;6.45;5.95;;;;;;;;;;5119336;28;20607;-62
2023/04/10 04:11:18;;;;;;;6.93;6.43;;;;;;;;;;5118853;28;20222;-62
2023/04/10 04:13:45;;;;;;;6.65;6.15;;;;;;;;;;5119166;28;20203;-62
2023/04/10 04:16:12;;;;;;;6.47;5.97;;;;;;;;;;5119191;28;20203;-62
2023/04/10 04:18:40;;;;;;;6.65;6.05;;;;;;;;;;5118899;28;20268;-62
2023/04/10 04:21:08;;;;;;;6.55;6.05;;;;;;;;;;5133489;27;20206;-62
2023/04/10 04:23:36;;;;;;;6.78;6.28;;;;;;;;;;5117994;28;20210;-62
2023/04/10 04:26:03;;;;;;;6.20;5.70;;;;;;;;;;5118765;28;20264;-62
2023/04/10 04:28:31;;;;;;;6.82;6.22;;;;;;;;;;5118797;28;20271;-62
2023/04/10 04:30:58;;;;;;;7.00;6.47;;;;;;;;;;5118969;28;20260;-62
2023/04/10 04:33:25;;;;;;;6.88;6.28;;;;;;;;;;5119076;28;20287;-62
2023/04/10 04:35:53;;;;;;;6.57;6.07;;;;;;;;;;5118955;28;20244;-62
2023/04/10 04:38:22;;;;;;;6.38;5.88;;;;;;;;;;5118471;28;20215;-62
2023/04/10 04:40:49;;;;;;;6.88;6.38;;;;;;;;;;5105992;28;20200;-62
2023/04/10 04:43:16;;;;;;;6.40;5.90;;;;;;;;;;5098320;28;20211;-62
2023/04/10 04:45:44;;;;;;;7.47;6.88;;;;;;;;;;5098233;28;20204;-62
2023/04/10 04:48:11;;;;;;;6.93;6.38;;;;;;;;;;5097891;28;20204;-62
2023/04/10 04:50:40;;;;;;;6.82;6.22;;;;;;;;;;5108173;28;20203;-62
2023/04/10 04:53:08;;;;;;;7.18;6.57;;;;;;;;;;5118191;28;20326;-62
2023/04/10 04:55:36;;;;;;;7.03;6.43;;;;;;;;;;5118601;28;20263;-62
2023/04/10 04:58:04;;;;;;;7.00;6.35;;;;;;;;;;5118658;28;20195;-62
2023/04/10 05:00:31;;;;;;;6.88;6.38;;;;;;;;;;5109158;28;20253;-62
2023/04/10 05:02:59;;;;;;;6.40;5.90;;;;;;;;;;5097958;28;20644;-62
2023/04/10 05:05:26;;;;;;;7.22;6.63;;;;;;;;;;5097993;28;20268;-62
2023/04/10 05:07:54;;;;;;;6.90;6.30;;;;;;;;;;5097871;28;20264;-62
2023/04/10 05:10:21;;;;;;;6.57;5.97;;;;;;;;;;5097846;28;20199;-62
2023/04/10 05:12:50;;;;;;;7.00;6.40;;;;;;;;;;5097780;28;20235;-62
2023/04/10 05:15:17;;;;;;;6.88;6.32;;;;;;;;;;5098069;28;20211;-62
2023/04/10 05:17:45;;;;;;;6.70;6.20;;;;;;;;;;5097749;28;20211;-62
2023/04/10 05:20:13;;;;;;;6.43;5.93;;;;;;;;;;5116952;28;20625;-62
2023/04/10 05:22:40;;;;;;;6.65;6.07;;;;;;;;;;5130365;27;20230;-62
2023/04/10 05:25:08;;;;;;;6.95;6.35;;;;;;;;;;5138537;27;20206;-62
2023/04/10 05:27:35;;;;;;;6.15;5.65;;;;;;;;;;5138341;27;20202;-62
2023/04/10 05:30:04;;;;;;;6.65;6.15;;;;;;;;;;5137749;27;20263;-62
2023/04/10 05:32:32;;;;;;;6.75;6.15;;;;;;;;;;5138088;28;20233;-62
2023/04/10 05:34:59;;;;;;;6.35;5.85;;;;;;;;;;5138066;27;20214;-62
2023/04/10 05:37:26;;;;;;;6.57;6.07;;;;;;;;;;5138142;28;20210;-62
2023/04/10 05:39:53;;;;;;;6.03;5.53;;;;;;;;;;5121208;28;20273;-62
2023/04/10 05:42:21;;;;;;;7.07;6.47;;;;;;;;;;5117802;28;20210;-62
2023/04/10 05:44:49;;;;;;;6.70;6.15;;;;;;;;;;5117812;28;20567;-62
2023/04/10 05:47:18;;;;;;;6.75;6.15;;;;;;;;;;5117724;28;20264;-62
2023/04/10 05:49:45;;;;;;;6.90;6.40;;;;;;;;;;5117755;28;20206;-62
2023/04/10 05:52:12;;;;;;;6.68;6.18;;;;;;;;;;5117231;28;20284;-62
2023/04/10 05:54:40;;;;;;;6.65;6.15;;;;;;;;;;5117852;28;20590;-62
2023/04/10 05:57:07;;;;;;;6.38;5.88;;;;;;;;;;5117983;28;20207;-62
2023/04/10 05:59:35;;;;;;;7.00;6.40;;;;;;;;;;5130850;28;20254;-62
2023/04/10 06:02:02;;;;;;;6.97;6.38;;;;;;;;;;5137901;28;20198;-62
2023/04/10 06:04:31;;;;;;;6.30;5.72;;;;;;;;;;5138486;28;20526;-62
2023/04/10 06:06:58;;;;;;;6.32;5.72;;;;;;;;;;5138401;28;20206;-62
2023/04/10 06:09:25;;;;;;;6.55;6.05;;;;;;;;;;5137542;28;20249;-62
2023/04/10 06:11:53;;;;;;;6.38;5.88;;;;;;;;;;5138027;28;20294;-62
2023/04/10 06:14:21;;;;;;;6.93;6.35;;;;;;;;;;5137951;28;20305;-62
2023/04/10 06:16:48;;;;;;;6.50;6.00;;;;;;;;;;5137650;28;20262;-62
2023/04/10 06:19:16;;;;;;;6.68;6.18;;;;;;;;;;5127212;28;20267;-62
2023/04/10 06:21:45;;;;;;;6.60;6.10;;;;;;;;;;5117128;28;20578;-62
2023/04/10 06:24:13;;;;;;;7.32;6.72;;;;;;;;;;5117198;28;20203;-62
2023/04/10 06:26:40;;;;;;;6.25;5.75;;;;;;;;;;5116910;28;20203;-62
2023/04/10 06:29:08;;;;;;;6.80;6.30;;;;;;;;;;5116994;28;20335;-63
2023/04/10 06:31:35;;;;;;;6.35;5.85;;;;;;;;;;5116857;28;20256;-62
2023/04/10 06:34:02;;;;;;;7.43;6.82;;;;;;;;;;5117081;28;20210;-62
2023/04/10 06:36:29;;;;;;;6.93;6.32;;;;;;;;;;5117232;28;20210;-62
2023/04/10 06:38:58;;;;;;;6.75;6.25;;;;;;;;;;5118465;28;20219;-62
2023/04/10 06:41:26;;;;;;;6.15;5.65;;;;;;;;;;5117156;28;20570;-62
2023/04/10 06:43:53;;;;;;;6.72;6.22;;;;;;;;;;5117073;28;20513;-63
2023/04/10 06:46:20;;;;;;;7.13;6.60;;;;;;;;;;5117834;28;20305;-62
2023/04/10 06:48:48;;;;;;;6.85;6.25;;;;;;;;;;5121730;27;20229;-63
2023/04/10 06:51:15;;;;;;;6.60;6.10;;;;;;;;;;5120530;28;20210;-62
2023/04/10 06:53:43;;;;;;;6.72;6.13;;;;;;;;;;5120439;28;20313;-62
2023/04/10 06:56:11;;;;;;;7.32;6.72;;;;;;;;;;5120585;28;20263;-62
2023/04/10 06:58:40;;;;;;;6.78;6.28;;;;;;;;;;5120129;28;20217;-63
2023/04/10 07:01:07;;;;;;;7.18;6.57;;;;;;;;;;5138593;27;20198;-62
2023/04/10 07:03:34;;;;;;;6.43;5.93;;;;;;;;;;5140877;27;20283;-62
2023/04/10 07:06:02;;;;;;;6.85;6.28;;;;;;;;;;5141111;27;20305;-62
2023/04/10 07:08:30;;;;;;;6.72;6.20;;;;;;;;;;5140300;27;20310;-62
2023/04/10 07:10:57;;;;;;;6.63;6.13;;;;;;;;;;5140355;27;20462;-63
2023/04/10 07:13:26;;;;;;;6.50;6.00;;;;;;;;;;5141140;27;20233;-63
2023/04/10 07:15:53;;;;;;;6.90;6.32;;;;;;;;;;5139722;27;20285;-63
2023/04/10 07:18:20;;;;;;;6.60;6.05;;;;;;;;;;5120108;28;20272;-63
2023/04/10 07:20:48;;;;;;;7.18;6.57;;;;;;;;;;5120037;28;20203;-62
2023/04/10 07:23:16;;;;;;;6.90;6.40;;;;;;;;;;5119803;28;20296;-62
2023/04/10 07:25:43;;;;;;;6.43;5.93;;;;;;;;;;5119257;28;20203;-62
2023/04/10 07:28:10;;;;;;;6.68;6.18;;;;;;;;;;5119679;27;20199;-63
2023/04/10 07:30:39;;;;;;;6.63;6.13;;;;;;;;;;5119814;28;20544;-63
2023/04/10 07:33:06;;;;;;;6.72;6.22;;;;;;;;;;5119496;28;20806;-63
2023/04/10 07:35:35;;;;;;;6.50;6.00;;;;;;;;;;5119167;28;20210;-63
2023/04/10 07:38:03;;;;;;;6.70;6.20;;;;;;;;;;5118606;28;20300;-63
2023/04/10 07:40:30;;;;;;;6.70;6.20;;;;;;;;;;5119467;28;20202;-63
2023/04/10 07:42:57;;;;;;;6.32;5.82;;;;;;;;;;5119555;28;20203;-63
2023/04/10 07:45:26;;;;;;;6.70;6.20;;;;;;;;;;5119342;28;20238;-62
2023/04/10 07:47:55;;;;;;;6.05;5.55;;;;;;;;;;5135510;27;20229;-63
2023/04/10 07:50:22;;;;;;;6.70;6.20;;;;;;;;;;5139811;27;20255;-63
2023/04/10 07:52:50;;;;;;;6.80;6.22;;;;;;;;;;5139752;27;20230;-63
2023/04/10 07:55:17;;;;;;;6.38;5.88;;;;;;;;;;5139525;27;20475;-63
2023/04/10 07:57:45;;;;;;;6.57;6.07;;;;;;;;;;5138991;27;20206;-64
2023/04/10 08:00:13;;;;;;;7.05;6.45;;;;;;;;;;5138902;27;20202;-63
2023/04/10 08:02:41;;;;;;;6.60;6.10;;;;;;;;;;5139368;27;20199;-63
2023/04/10 08:05:10;;;;;;;6.68;6.18;;;;;;;;;;5139499;27;20210;-63
2023/04/10 08:07:37;;;;;;;7.00;6.40;;;;;;;;;;5139024;27;20552;-63
2023/04/10 08:10:04;;;;;;;6.20;5.75;;;;;;;;;;5120743;27;20538;-63
2023/04/10 08:12:33;;;;;;;6.35;5.85;;;;;;;;;;5118693;28;20537;-63
2023/04/10 08:15:01;;;;;;;6.28;5.78;;;;;;;;;;5118400;28;20727;-63
2023/04/10 08:17:28;;;;;;;6.50;6.00;;;;;;;;;;5118743;27;20207;-63
2023/04/10 08:19:55;;;;;;;6.50;5.97;;;;;;;;;;5118600;28;20211;-63
2023/04/10 08:22:24;;;;;;;6.40;5.80;;;;;;;;;;5117957;28;20231;-63
2023/04/10 08:24:51;;;;;;;6.28;5.78;;;;;;;;;;5118052;28;20203;-63
2023/04/10 08:27:18;;;;;;;6.38;5.88;;;;;;;;;;5129073;27;20214;-63
2023/04/10 08:29:46;;;;;;;6.47;5.97;;;;;;;;;;5138893;27;20202;-63
2023/04/10 08:32:13;;;;;;;6.53;5.93;;;;;;;;;;5138874;27;20206;-63
2023/04/10 08:34:40;;;;;;;6.57;5.97;;;;;;;;;;5138616;27;20210;-63
2023/04/10 08:37:08;;;;;;;7.20;6.55;;;;;;;;;;5138593;27;20210;-63
2023/04/10 08:39:37;;;;;;;6.88;6.30;;;;;;;;;;5138353;27;20202;-62
2023/04/10 08:42:04;;;;;;;6.82;6.22;;;;;;;;;;5138834;27;20212;-63
2023/04/10 08:44:32;;;;;;;7.00;6.40;;;;;;;;;;5138785;27;20322;-63
2023/04/10 08:47:00;;;;;;;7.10;6.40;;;;;;;;;;5134013;27;20194;-62
2023/04/10 08:49:32;;;;;;;6.40;5.90;;;;;;;;;;5138356;27;20266;-63
2023/04/10 08:51:59;;;;;;;6.75;6.20;;;;;;;;;;5138122;27;20203;-63
2023/04/10 08:54:28;;;;;;;7.22;6.63;;;;;;;;;;5138260;27;20226;-63
2023/04/10 08:57:00;;;;;;;6.97;6.38;;;;;;;;;;5130689;27;20201;-63
2023/04/10 08:59:28;;;;;;;6.80;6.10;;;;;;;;;;5129621;27;20266;-63
2023/04/10 09:01:56;;;;;;;6.95;6.35;;;;;;;;;;5137506;27;20731;-63
2023/04/10 09:04:23;;;;;;;6.20;5.70;;;;;;;;;;5122134;27;20195;-63
2023/04/10 09:06:50;;;;;;;6.88;6.28;;;;;;;;;;5121479;27;20203;-63
2023/04/10 09:09:18;;;;;;;6.60;6.05;;;;;;;;;;5135256;27;20264;-63
2023/04/10 09:12:03;;;;;;;7.45;6.60;;;;;;;;;;5138026;27;20269;-62
2023/04/10 09:14:30;;;;;;;7.30;6.68;;;;;;;;;;5121615;27;20626;-63
2023/04/10 09:17:12;;;;;;;6.70;6.10;;;;;;;;;;5131971;27;20206;-63
2023/04/10 09:19:39;;;;;;;6.90;6.30;;;;;;;;;;5135501;27;20202;-63
2023/04/10 09:22:06;;;;;;;7.45;6.80;;;;;;;;;;5138028;27;20230;-62
2023/04/10 09:24:37;;;;;;;6.95;6.35;;;;;;;;;;5120843;27;20257;-62
2023/04/10 09:27:06;;;;;;;6.50;6.00;;;;;;;;;;5117234;28;20305;-62
2023/04/10 09:29:47;;;;;;;6.53;6.03;;;;;;;;;;5117589;28;20293;-63
2023/04/10 09:32:35;;;;;;;7.22;6.63;;;;;;;;;;5117402;28;20202;-63
2023/04/10 09:35:03;;;;;;;7.40;6.70;;;;;;;;;;5136031;28;20251;-63
2023/04/10 09:37:32;;;;;;;6.40;5.80;;;;;;;;;;5137703;28;20296;-63
2023/04/10 09:39:59;;;;;;;6.72;6.07;;;;;;;;;;5137363;28;20205;-63
2023/04/10 09:42:32;;;;;;;6.65;6.15;;;;;;;;;;5137766;28;20209;-63
2023/04/10 09:45:00;;;;;;;7.22;6.53;;;;;;;;;;5117495;28;20295;-63
2023/04/10 09:47:27;;;;;;;6.95;6.30;;;;;;;;;;5117482;28;20531;-63
2023/04/10 09:49:55;;;;;;;7.00;6.38;;;;;;;;;;5117001;28;20515;-63
2023/04/10 09:52:25;;;;;;;6.55;6.00;;;;;;;;;;5117361;28;20207;-63
2023/04/10 09:54:52;;;;;;;6.47;5.93;;;;;;;;;;5134286;28;20229;-63
2023/04/10 09:57:20;;;;;;;6.53;5.93;;;;;;;;;;5137279;28;20593;-63
2023/04/10 09:59:50;;;;;;;6.47;5.88;;;;;;;;;;5137735;28;20273;-63
2023/04/10 10:02:18;;;;;;;6.18;5.68;;;;;;;;;;5137618;28;20549;-63
2023/04/10 10:04:46;;;;;;;6.30;5.70;;;;;;;;;;5120617;28;20202;-63
2023/04/10 10:07:14;;;;;;;6.25;5.75;;;;;;;;;;5116838;28;20297;-63
2023/04/10 10:09:42;;;;;;;7.10;6.50;;;;;;;;;;5116995;28;20211;-62
2023/04/10 10:12:10;;;;;;;6.05;5.55;;;;;;;;;;5116614;28;20207;-63
2023/04/10 10:14:39;;;;;;;6.70;6.10;;;;;;;;;;5131605;28;20221;-63
2023/04/10 10:17:09;;;;;;;6.35;5.85;;;;;;;;;;5137520;28;20577;-62
2023/04/10 10:19:41;;;;;;;6.28;5.70;;;;;;;;;;5137540;28;20210;-63
2023/04/10 10:22:09;;;;;;;6.20;5.70;;;;;;;;;;5138992;27;20238;-62
2023/04/10 10:24:38;;;;;;;6.07;5.57;;;;;;;;;;5124751;27;20552;-63
2023/04/10 10:27:06;;;;;;;5.93;5.43;;;;;;;;;;5120865;28;20211;-63
2023/04/10 10:29:35;;;;;;;5.97;5.47;;;;;;;;;;5119923;28;20206;-63
2023/04/10 10:32:04;;;;;;;5.80;5.30;;;;;;;;;;5138397;27;20213;-63
2023/04/10 10:34:33;;;;;;;6.20;5.60;;;;;;;;;;5141096;27;20610;-62
2023/04/10 10:37:01;;;;;;;5.82;5.32;;;;;;;;;;5140571;27;20210;-63
2023/04/10 10:39:33;;;;;;;5.75;5.22;;;;;;;;;;5140354;27;20202;-63
2023/04/10 10:42:03;;;;;;;6.05;5.55;;;;;;;;;;5122628;27;20206;-63
2023/04/10 10:44:36;;;;;;;5.50;5.10;;;;;;;;;;5120191;28;20745;-63
2023/04/10 10:47:07;;;;;;;5.55;5.05;;;;;;;;;;5120310;28;20210;-63
2023/04/10 10:49:53;;;;;;;6.05;5.55;;;;;;;;;;5119891;28;20725;-63
2023/04/10 10:52:35;;;;;;;5.50;5.05;;;;;;;;;;5139814;27;20289;-63
2023/04/10 10:55:30;;;;;;;5.90;5.40;;;;;;;;;;5140007;27;20222;-63
2023/04/10 10:57:58;;;;;;;5.13;4.65;;;;;;;;;;5139994;27;20202;-63
2023/04/10 11:00:26;;;;;;;5.60;5.10;;;;;;;;;;5136386;27;20244;-62
2023/04/10 11:03:12;;;;;;;5.60;5.10;;;;;;;;;;5119445;28;20251;-62
2023/04/10 11:05:54;;;;;;;5.18;4.78;;;;;;;;;;5119519;28;20203;-63
2023/04/10 11:08:38;;;;;;;5.35;4.95;;;;;;;;;;5117777;28;20297;-63
2023/04/10 11:11:07;;;;;;;5.40;5.00;;;;;;;;;;5128765;27;20194;-62
2023/04/10 11:13:36;;;;;;;5.60;5.15;;;;;;;;;;5139701;27;20226;-63
2023/04/10 11:16:03;;;;;;;5.50;5.07;;;;;;;;;;5139050;27;20717;-62
2023/04/10 11:18:49;;;;;;;5.50;5.00;;;;;;;;;;5139780;27;20203;-62
2023/04/10 11:21:17;;;;;;;5.55;5.05;;;;;;;;;;5127809;27;20203;-63
2023/04/10 11:24:03;;;;;;;5.55;5.03;;;;;;;;;;5119140;28;20203;-63
2023/04/10 11:26:38;;;;;;;5.03;4.63;;;;;;;;;;5119336;28;20606;-63
2023/04/10 11:29:07;;;;;;;5.65;5.15;;;;;;;;;;5118867;28;20245;-63
2023/04/10 11:31:35;;;;;;;5.00;4.60;;;;;;;;;;5132008;27;20267;-63
2023/04/10 11:34:03;;;;;;;5.75;5.25;;;;;;;;;;5139776;27;20287;-62
2023/04/10 11:36:31;;;;;;;5.95;5.45;;;;;;;;;;5139453;27;20663;-63
2023/04/10 11:38:58;;;;;;;5.65;5.18;;;;;;;;;;5140001;27;20203;-62
2023/04/10 11:41:30;;;;;;;5.82;5.32;;;;;;;;;;5138478;27;20206;-63
2023/04/10 11:43:59;;;;;;;5.28;4.88;;;;;;;;;;5139889;27;20199;-62
2023/04/10 11:46:27;;;;;;;5.32;4.93;;;;;;;;;;5139003;27;20245;-62
2023/04/10 11:48:54;;;;;;;5.28;4.88;;;;;;;;;;5138858;27;20202;-63
2023/04/10 11:51:22;;;;;;;5.55;5.05;;;;;;;;;;5127860;27;20199;-63
2023/04/10 11:53:50;;;;;;;5.32;4.88;;;;;;;;;;5117954;28;20676;-63
2023/04/10 11:56:19;;;;;;;5.35;4.93;;;;;;;;;;5117299;28;20206;-63
2023/04/10 11:58:46;;;;;;;5.20;4.80;;;;;;;;;;5123074;27;20598;-63
2023/04/10 12:01:15;;;;;;;5.43;4.93;;;;;;;;;;5139195;27;20573;-62
2023/04/10 12:03:42;;;;;;;5.45;5.00;;;;;;;;;;5138660;27;20206;-63
2023/04/10 12:06:11;;;;;;;5.70;5.20;;;;;;;;;;5139102;27;20202;-63
2023/04/10 12:08:40;;;;;;;5.20;4.80;;;;;;;;;;5134502;27;20203;-63
2023/04/10 12:11:08;;;;;;;5.13;4.72;;;;;;;;;;5117964;28;20218;-63
2023/04/10 12:13:35;;;;;;;5.28;4.88;;;;;;;;;;5117811;28;20219;-63
2023/04/10 12:16:04;;;;;;;5.00;4.60;;;;;;;;;;5117684;28;20198;-62
2023/04/10 12:18:33;;;;;;;5.53;4.88;;;;;;;;;;5119152;27;20325;-63
2023/04/10 12:21:00;;;;;;;5.35;4.90;;;;;;;;;;5138104;27;20202;-62
2023/04/10 12:23:28;;;;;;;5.60;5.20;;;;;;;;;;5137327;27;20542;-63
2023/04/10 12:26:07;;;;;;;4.80;4.40;;;;;;;;;;5137750;27;20206;-63
2023/04/10 12:28:34;;;;;;;5.25;4.85;;;;;;;;;;5134754;27;20294;-63
2023/04/10 12:31:02;;;;;;;5.38;4.90;;;;;;;;;;5117491;28;20195;-63
2023/04/10 12:33:29;;;;;;;4.70;4.30;;;;;;;;;;5117528;28;20293;-63
2023/04/10 12:35:59;;;;;;;5.07;4.68;;;;;;;;;;5116901;28;20203;-63
2023/04/10 12:38:39;;;;;;;4.90;4.50;;;;;;;;;;5118103;27;20203;-62
2023/04/10 12:41:07;;;;;;;5.20;4.75;;;;;;;;;;5137204;27;20209;-63
2023/04/10 12:43:35;;;;;;;4.95;4.45;;;;;;;;;;5136459;27;20568;-63
2023/04/10 12:46:03;;;;;;;4.82;4.43;;;;;;;;;;5138155;27;20580;-63
2023/04/10 12:48:33;;;;;;;5.00;4.60;;;;;;;;;;5132423;27;20481;-64
2023/04/10 12:51:02;;;;;;;5.07;4.68;;;;;;;;;;5136270;27;20298;-63
2023/04/10 12:53:30;;;;;;;5.00;4.60;;;;;;;;;;5136484;27;20213;-62
2023/04/10 12:56:01;;;;;;;5.05;4.65;;;;;;;;;;5137810;27;20300;-63
2023/04/10 12:58:30;;;;;;;4.72;4.32;;;;;;;;;;5136899;27;20274;-63
2023/04/10 13:00:57;;;;;;;4.82;4.43;;;;;;;;;;5138047;27;20213;-63
2023/04/10 13:03:25;;;;;;;4.72;4.32;;;;;;;;;;5137757;27;20210;-63
2023/04/10 13:05:53;;;;;;;4.70;4.35;;;;;;;;;;5137554;27;20293;-63
2023/04/10 13:08:22;;;;;;;4.50;4.20;;;;;;;;;;5138080;27;20225;-63
2023/04/10 13:10:49;;;;;;;4.88;4.47;;;;;;;;;;5117942;27;20263;-63
2023/04/10 13:13:16;;;;;;;5.18;4.68;;;;;;;;;;5116958;28;20453;-63
2023/04/10 13:15:44;;;;;;;4.63;4.22;;;;;;;;;;5116941;28;20218;-63
2023/04/10 13:18:12;;;;;;;5.05;4.65;;;;;;;;;;5117424;28;20206;-62
2023/04/10 13:20:39;;;;;;;4.65;4.35;;;;;;;;;;5116507;28;20198;-63
2023/04/10 13:23:07;;;;;;;5.07;4.68;;;;;;;;;;5116168;28;20229;-62
2023/04/10 13:25:38;;;;;;;4.68;4.30;;;;;;;;;;5116181;28;20252;-63
2023/04/10 13:28:09;;;;;;;4.97;4.47;;;;;;;;;;5116239;28;20209;-63
2023/04/10 13:30:37;;;;;;;4.82;4.50;;;;;;;;;;5116512;28;20231;-63
2023/04/10 13:33:05;;;;;;;4.95;4.55;;;;;;;;;;5116803;28;20203;-63
2023/04/10 13:35:32;;;;;;;4.85;4.45;;;;;;;;;;5115798;28;20231;-63
2023/04/10 13:37:59;;;;;;;4.78;4.38;;;;;;;;;;5115923;28;20203;-63
2023/04/10 13:40:26;;;;;;;5.07;4.60;;;;;;;;;;5115679;28;20211;-63
2023/04/10 13:42:55;;;;;;;4.95;4.55;;;;;;;;;;5115739;28;20222;-63
2023/04/10 13:45:22;;;;;;;4.50;4.20;;;;;;;;;;5116812;28;20195;-63
2023/04/10 13:47:50;;;;;;;4.35;4.05;;;;;;;;;;5116404;28;20255;-63
2023/04/10 13:50:17;;;;;;;4.50;4.10;;;;;;;;;;5116513;28;20287;-63
2023/04/10 13:52:44;;;;;;;4.93;4.53;;;;;;;;;;5116731;28;20202;-63
2023/04/10 13:55:12;;;;;;;4.68;4.28;;;;;;;;;;5117237;28;20238;-63
2023/04/10 13:57:39;;;;;;;5.30;4.90;;;;;;;;;;5120196;28;20202;-63
2023/04/10 14:00:09;;;;;;;5.00;4.50;;;;;;;;;;5119080;28;20313;-63
2023/04/10 14:02:36;;;;;;;5.25;4.85;;;;;;;;;;5120184;28;20314;-63
2023/04/10 14:05:04;;;;;;;5.03;4.55;;;;;;;;;;5119444;28;20210;-63
2023/04/10 14:07:32;;;;;;;4.85;4.45;;;;;;;;;;5119170;28;20203;-63
2023/04/10 14:10:00;;;;;;;4.88;4.47;;;;;;;;;;5120662;28;20630;-63
2023/04/10 14:12:28;;;;;;;5.05;4.65;;;;;;;;;;5119693;28;20258;-62
2023/04/10 14:14:55;;;;;;;4.80;4.40;;;;;;;;;;5119610;28;20227;-62
2023/04/10 14:17:24;;;;;;;4.10;3.80;;;;;;;;;;5119126;28;20298;-63
2023/04/10 14:19:52;;;;;;;4.88;4.47;;;;;;;;;;5120275;28;20535;-63
2023/04/10 14:22:20;;;;;;;4.63;4.22;;;;;;;;;;5119421;28;20299;-63
2023/04/10 14:24:47;;;;;;;4.75;4.22;;;;;;;;;;5118534;28;20316;-63
2023/04/10 14:27:15;;;;;;;5.13;4.60;;;;;;;;;;5119187;28;20556;-63
2023/04/10 14:29:43;;;;;;;6.63;4.65;;;;;;;;;;5118857;28;20281;-63
2023/04/10 14:32:10;;;;;;;5.28;4.50;;;;;;;;;;5134472;27;20259;-62
2023/04/10 14:34:39;;;;;;;7.13;4.25;;;;;;;;;;5139941;27;20219;-63
2023/04/10 14:37:06;;;;;;;6.28;4.43;;;;;;;;;;5139790;27;20202;-63
2023/04/10 14:39:33;;;;;;;5.32;4.18;;;;;;;;;;5139659;27;20254;-63
2023/04/10 14:42:02;;;;;;;6.93;4.40;;;;;;;;;;5140340;27;20213;-63
2023/04/10 14:44:29;;;;;;;7.40;4.15;;;;;;;;;;5140116;27;20301;-62
2023/04/10 14:46:56;;;;;;;7.63;4.50;;;;;;;;;;5139613;27;20203;-62
2023/04/10 14:49:24;;;;;;;7.75;4.32;;;;;;;;;;5140436;27;20206;-63
2023/04/10 14:51:52;;;;;;;5.60;4.30;;;;;;;;;;5139589;27;20205;-63